createdAt,value
2023-05-07T00:02:22.593Z,19.70
2023-05-07T00:04:49.263Z,19.80
2023-05-07T00:07:15.925Z,19.70
2023-05-07T00:09:42.869Z,19.70
2023-05-07T00:12:09.371Z,19.70
2023-05-07T00:14:35.835Z,19.70
2023-05-07T00:17:02.301Z,19.70
2023-05-07T00:19:28.821Z,19.70
2023-05-07T00:21:55.288Z,19.90
2023-05-07T00:24:21.768Z,19.70
2023-05-07T00:26:48.334Z,20.10
2023-05-07T00:29:14.862Z,19.70
2023-05-07T00:31:41.402Z,19.70
2023-05-07T00:34:07.891Z,19.50
2023-05-07T00:36:34.343Z,19.70
2023-05-07T00:39:00.826Z,19.60
2023-05-07T00:41:27.336Z,19.70
2023-05-07T00:43:53.819Z,19.70
2023-05-07T00:46:20.346Z,19.50
2023-05-07T00:48:46.844Z,19.70
2023-05-07T00:51:13.345Z,19.40
2023-05-07T00:53:39.801Z,19.70
2023-05-07T00:56:06.327Z,19.70
2023-05-07T00:58:32.775Z,19.70
2023-05-07T01:00:59.303Z,19.70
2023-05-07T01:03:25.912Z,19.70
2023-05-07T01:05:52.579Z,19.80
2023-05-07T01:08:19.403Z,20.00
2023-05-07T01:10:45.854Z,19.70
2023-05-07T01:13:12.378Z,19.70
2023-05-07T01:15:38.905Z,19.70
2023-05-07T01:18:05.434Z,19.70
2023-05-07T01:20:31.965Z,19.70
2023-05-07T01:22:58.448Z,19.70
2023-05-07T01:25:24.934Z,19.70
2023-05-07T01:27:51.623Z,19.70
2023-05-07T01:30:18.120Z,19.60
2023-05-07T01:32:44.674Z,19.80
2023-05-07T01:35:11.179Z,19.70
2023-05-07T01:37:37.698Z,19.50
2023-05-07T01:40:04.224Z,19.70
2023-05-07T01:42:30.735Z,19.70
2023-05-07T01:44:57.274Z,19.70
2023-05-07T01:47:23.808Z,19.60
2023-05-07T01:49:50.317Z,19.70
2023-05-07T01:52:16.796Z,19.60
2023-05-07T01:54:43.331Z,19.40
2023-05-07T01:57:09.816Z,19.70
2023-05-07T01:59:36.285Z,19.40
2023-05-07T02:02:02.796Z,19.70
2023-05-07T02:04:29.300Z,19.80
2023-05-07T02:06:55.783Z,19.60
2023-05-07T02:09:22.235Z,19.70
2023-05-07T02:11:48.720Z,19.60
2023-05-07T02:14:15.406Z,19.60
2023-05-07T02:16:42.011Z,19.60
2023-05-07T02:19:08.595Z,19.60
2023-05-07T02:21:35.158Z,19.60
2023-05-07T02:24:01.652Z,20.50
2023-05-07T02:26:28.139Z,19.70
2023-05-07T02:28:54.604Z,19.60
2023-05-07T02:31:21.106Z,19.70
2023-05-07T02:33:47.647Z,19.60
2023-05-07T02:36:14.121Z,19.60
2023-05-07T02:38:40.667Z,19.60
2023-05-07T02:41:07.148Z,19.70
2023-05-07T02:43:33.600Z,19.60
2023-05-07T02:46:00.118Z,19.90
2023-05-07T02:48:26.668Z,19.60
2023-05-07T02:50:53.134Z,19.60
2023-05-07T02:53:19.621Z,19.60
2023-05-07T02:55:46.086Z,19.60
2023-05-07T02:58:12.543Z,19.60
2023-05-07T03:00:39.032Z,19.60
2023-05-07T03:03:05.545Z,19.60
2023-05-07T03:05:32.094Z,19.60
2023-05-07T03:07:58.551Z,19.70
2023-05-07T03:10:25.046Z,19.60
2023-05-07T03:12:51.696Z,19.50
2023-05-07T03:15:18.271Z,19.60
2023-05-07T03:17:44.805Z,19.60
2023-05-07T03:20:11.460Z,20.30
2023-05-07T03:22:38.224Z,19.70
2023-05-07T03:25:04.714Z,19.90
2023-05-07T03:27:31.208Z,19.60
2023-05-07T03:29:57.704Z,19.90
2023-05-07T03:32:24.266Z,19.50
2023-05-07T03:34:50.786Z,19.60
2023-05-07T03:37:17.251Z,19.60
2023-05-07T03:39:43.746Z,19.60
2023-05-07T03:42:10.210Z,19.90
2023-05-07T03:44:36.663Z,19.70
2023-05-07T03:47:03.129Z,19.40
2023-05-07T03:49:29.664Z,19.50
2023-05-07T03:51:56.164Z,19.60
2023-05-07T03:56:49.652Z,19.60
2023-05-07T03:59:16.120Z,19.60
2023-05-07T04:01:42.686Z,19.60
2023-05-07T04:04:09.317Z,19.70
2023-05-07T04:06:35.819Z,19.60
2023-05-07T04:09:02.294Z,19.50
2023-05-07T04:11:28.826Z,20.00
2023-05-07T04:13:55.349Z,19.50
2023-05-07T04:16:21.912Z,19.70
2023-05-07T04:18:48.473Z,19.50
2023-05-07T04:21:15.025Z,19.60
2023-05-07T04:23:41.516Z,19.30
2023-05-07T04:28:34.984Z,19.80
2023-05-07T04:31:01.476Z,19.50
2023-05-07T04:33:27.988Z,19.60
2023-05-07T04:35:54.503Z,19.50
2023-05-07T04:38:21.001Z,19.50
2023-05-07T04:40:47.512Z,19.50
2023-05-07T04:43:13.991Z,19.50
2023-05-07T04:45:40.490Z,19.50
2023-05-07T04:48:07.056Z,19.50
2023-05-07T04:50:33.588Z,19.60
2023-05-07T04:53:00.113Z,19.30
2023-05-07T04:55:26.619Z,19.60
2023-05-07T04:57:53.100Z,19.50
2023-05-07T05:00:19.637Z,19.60
2023-05-07T05:02:46.226Z,19.40
2023-05-07T05:05:12.769Z,19.40
2023-05-07T05:07:39.276Z,19.50
2023-05-07T05:10:05.787Z,20.70
2023-05-07T05:12:32.345Z,20.00
2023-05-07T05:14:58.811Z,19.60
2023-05-07T05:17:25.332Z,19.50
2023-05-07T05:19:51.831Z,19.60
2023-05-07T05:22:18.349Z,19.50
2023-05-07T05:24:44.869Z,19.50
2023-05-07T05:27:11.414Z,19.50
2023-05-07T05:29:37.921Z,19.60
2023-05-07T05:32:04.580Z,19.60
2023-05-07T05:34:31.190Z,19.60
2023-05-07T05:36:57.722Z,19.60
2023-05-07T05:39:24.272Z,19.70
2023-05-07T05:41:50.867Z,19.60
2023-05-07T05:44:17.451Z,19.30
2023-05-07T05:46:43.994Z,19.60
2023-05-07T05:49:10.530Z,20.30
2023-05-07T05:51:37.069Z,19.70
2023-05-07T05:54:03.548Z,19.70
2023-05-07T05:56:30.026Z,19.70
2023-05-07T05:58:56.556Z,19.70
2023-05-07T06:01:23.046Z,19.70
2023-05-07T06:03:49.556Z,19.70
2023-05-07T06:06:16.032Z,19.70
2023-05-07T06:08:42.522Z,19.70
2023-05-07T06:11:08.999Z,19.70
2023-05-07T06:13:35.457Z,19.70
2023-05-07T06:16:01.982Z,19.70
2023-05-07T06:18:28.451Z,19.80
2023-05-07T06:20:54.994Z,19.80
2023-05-07T06:23:21.522Z,19.20
2023-05-07T06:25:48.037Z,19.80
2023-05-07T06:28:14.543Z,20.80
2023-05-07T06:30:41.013Z,19.80
2023-05-07T06:33:07.497Z,19.80
2023-05-07T06:35:34.019Z,19.80
2023-05-07T06:38:00.529Z,19.90
2023-05-07T06:40:27.050Z,19.50
2023-05-07T06:42:53.560Z,20.00
2023-05-07T06:45:20.063Z,19.90
2023-05-07T06:47:46.528Z,19.90
2023-05-07T06:50:13.066Z,19.60
2023-05-07T06:52:39.613Z,20.00
2023-05-07T06:55:06.084Z,19.90
2023-05-07T06:57:32.563Z,19.70
2023-05-07T06:59:59.021Z,19.80
2023-05-07T07:02:25.540Z,19.80
2023-05-07T07:07:19.144Z,20.00
2023-05-07T07:09:45.590Z,20.00
2023-05-07T07:12:12.095Z,19.90
2023-05-07T07:14:38.574Z,20.00
2023-05-07T07:17:05.082Z,19.90
2023-05-07T07:19:31.585Z,20.00
2023-05-07T07:21:58.053Z,20.00
2023-05-07T07:24:24.548Z,20.10
2023-05-07T07:26:51.045Z,20.00
2023-05-07T07:29:17.524Z,19.90
2023-05-07T07:31:44.072Z,20.10
2023-05-07T07:34:10.611Z,20.10
2023-05-07T07:36:45.468Z,20.20
2023-05-07T07:39:13.384Z,20.10
2023-05-07T07:41:39.905Z,20.10
2023-05-07T07:44:06.352Z,20.20
2023-05-07T07:46:32.837Z,20.20
2023-05-07T07:48:59.430Z,20.10
2023-05-07T07:51:25.913Z,19.70
2023-05-07T07:53:52.387Z,21.20
2023-05-07T07:56:18.872Z,21.40
2023-05-07T07:58:45.383Z,20.20
2023-05-07T08:01:11.843Z,20.40
2023-05-07T08:03:38.409Z,20.30
2023-05-07T08:06:04.934Z,20.00
2023-05-07T08:08:31.397Z,20.30
2023-05-07T08:10:57.843Z,20.30
2023-05-07T08:13:24.349Z,20.30
2023-05-07T08:15:50.880Z,20.40
2023-05-07T08:18:17.341Z,20.30
2023-05-07T08:20:43.810Z,20.40
2023-05-07T08:23:10.292Z,20.40
2023-05-07T08:25:36.829Z,20.40
2023-05-07T08:28:03.310Z,20.40
2023-05-07T08:30:29.833Z,20.50
2023-05-07T08:32:56.372Z,20.20
2023-05-07T08:35:22.877Z,20.40
2023-05-07T08:37:49.364Z,20.50
2023-05-07T08:40:16.389Z,20.00
2023-05-07T08:42:43.093Z,20.50
2023-05-07T08:45:09.540Z,20.50
2023-05-07T08:47:36.029Z,20.50
2023-05-07T08:50:02.518Z,19.60
2023-05-07T08:52:28.982Z,20.60
2023-05-07T08:54:55.439Z,20.60
2023-05-07T08:57:21.937Z,20.60
2023-05-07T08:59:48.437Z,20.60
2023-05-07T09:02:15.181Z,20.60
2023-05-07T09:04:41.725Z,20.60
2023-05-07T09:07:08.213Z,20.60
2023-05-07T09:09:34.674Z,20.60
2023-05-07T09:12:01.170Z,20.60
2023-05-07T09:14:27.621Z,20.30
2023-05-07T09:16:54.063Z,20.40
2023-05-07T09:19:20.517Z,20.60
2023-05-07T09:21:46.966Z,20.50
2023-05-07T09:24:13.419Z,20.50
2023-05-07T09:26:40.100Z,20.20
2023-05-07T09:29:06.560Z,20.60
2023-05-07T09:31:33.128Z,20.50
2023-05-07T09:33:59.654Z,20.60
2023-05-07T09:36:26.164Z,20.60
2023-05-07T09:38:52.690Z,20.60
2023-05-07T09:41:19.185Z,20.60
2023-05-07T09:43:45.630Z,20.60
2023-05-07T09:46:12.218Z,20.60
2023-05-07T09:48:38.753Z,21.50
2023-05-07T09:51:05.281Z,20.70
2023-05-07T09:53:31.779Z,20.70
2023-05-07T09:55:58.288Z,20.70
2023-05-07T09:58:24.810Z,21.30
2023-05-07T10:00:51.339Z,20.70
2023-05-07T10:03:17.911Z,20.70
2023-05-07T10:05:44.390Z,20.70
2023-05-07T10:08:10.903Z,20.80
2023-05-07T10:10:37.411Z,20.70
2023-05-07T10:13:03.945Z,20.60
2023-05-07T10:15:30.455Z,20.70
2023-05-07T10:17:57.074Z,20.70
2023-05-07T10:20:23.697Z,20.70
2023-05-07T10:22:50.162Z,20.60
2023-05-07T10:25:16.672Z,20.60
2023-05-07T10:27:43.176Z,20.70
2023-05-07T10:30:09.653Z,20.60
2023-05-07T10:35:03.206Z,20.60
2023-05-07T10:37:29.651Z,20.70
2023-05-07T10:39:56.104Z,20.70
2023-05-07T10:42:22.566Z,20.60
2023-05-07T10:44:49.034Z,20.60
2023-05-07T10:47:15.511Z,21.00
2023-05-07T10:49:41.962Z,20.60
2023-05-07T10:52:08.410Z,20.60
2023-05-07T10:57:01.311Z,20.60
2023-05-07T10:59:27.821Z,20.60
2023-05-07T11:01:54.322Z,20.60
2023-05-07T11:04:20.848Z,20.60
2023-05-07T11:06:47.356Z,20.60
2023-05-07T11:09:13.845Z,20.60
2023-05-07T11:11:40.294Z,20.60
2023-05-07T11:14:06.773Z,20.00
2023-05-07T11:16:33.296Z,21.10
2023-05-07T11:18:59.790Z,20.60
2023-05-07T11:21:26.276Z,20.70
2023-05-07T11:23:52.740Z,20.70
2023-05-07T11:26:19.191Z,20.70
2023-05-07T11:28:45.699Z,21.00
2023-05-07T11:31:12.190Z,20.70
2023-05-07T11:33:38.646Z,20.70
2023-05-07T11:36:05.172Z,20.70
2023-05-07T11:38:31.662Z,20.60
2023-05-07T11:40:58.155Z,20.60
2023-05-07T11:43:24.619Z,20.60
2023-05-07T11:45:51.174Z,20.60
2023-05-07T11:48:17.642Z,20.90
2023-05-07T11:50:44.104Z,20.60
2023-05-07T11:53:13.848Z,20.40
2023-05-07T11:55:40.783Z,20.60
2023-05-07T11:58:08.809Z,21.10
2023-05-07T12:00:36.622Z,20.50
2023-05-07T12:03:03.280Z,20.60
2023-05-07T12:05:29.860Z,20.50
2023-05-07T12:07:56.362Z,20.50
2023-05-07T12:10:22.874Z,21.00
2023-05-07T12:12:49.377Z,20.00
2023-05-07T12:15:15.840Z,20.10
2023-05-07T12:17:42.388Z,20.50
2023-05-07T12:20:08.918Z,20.50
2023-05-07T12:22:35.461Z,20.90
2023-05-07T12:25:02.051Z,20.50
2023-05-07T12:27:28.660Z,20.50
2023-05-07T12:29:55.147Z,20.60
2023-05-07T12:32:21.642Z,20.60
2023-05-07T12:34:48.139Z,20.60
2023-05-07T12:37:14.686Z,20.50
2023-05-07T12:39:41.249Z,20.50
2023-05-07T12:42:07.708Z,21.40
2023-05-07T12:44:34.163Z,20.90
2023-05-07T12:47:00.647Z,20.50
2023-05-07T12:49:27.098Z,20.40
2023-05-07T12:51:53.550Z,20.50
2023-05-07T12:54:19.984Z,20.60
2023-05-07T12:56:46.433Z,20.60
2023-05-07T12:59:12.880Z,20.60
2023-05-07T13:01:39.373Z,20.50
2023-05-07T13:04:05.944Z,20.90
2023-05-07T13:06:32.452Z,20.40
2023-05-07T13:08:58.886Z,20.30
2023-05-07T13:11:25.338Z,20.50
2023-05-07T13:13:51.825Z,20.50
2023-05-07T13:16:18.372Z,20.50
2023-05-07T13:18:48.726Z,20.50
2023-05-07T13:21:15.249Z,20.50
2023-05-07T13:23:42.033Z,21.20
2023-05-07T13:26:24.832Z,20.50
2023-05-07T13:28:53.013Z,20.50
2023-05-07T13:31:19.633Z,20.50
2023-05-07T13:33:46.134Z,20.50
2023-05-07T13:36:12.603Z,20.40
2023-05-07T13:38:39.174Z,20.70
2023-05-07T13:41:05.675Z,20.40
2023-05-07T13:43:32.157Z,20.40
2023-05-07T13:45:58.673Z,20.40
2023-05-07T13:48:25.220Z,20.40
2023-05-07T13:50:51.763Z,20.40
2023-05-07T13:53:18.214Z,20.40
2023-05-07T13:55:44.793Z,20.40
2023-05-07T13:58:11.252Z,20.40
2023-05-07T14:00:37.721Z,20.40
2023-05-07T14:03:04.300Z,20.40
2023-05-07T14:05:30.845Z,20.40
2023-05-07T14:07:57.443Z,20.40
2023-05-07T14:10:23.927Z,20.30
2023-05-07T14:12:50.581Z,20.40
2023-05-07T14:17:44.252Z,20.30
2023-05-07T14:20:10.963Z,20.30
2023-05-07T14:22:37.721Z,19.90
2023-05-07T14:25:14.655Z,20.10
2023-05-07T14:27:41.300Z,20.30
2023-05-07T14:30:07.754Z,20.30
2023-05-07T14:32:34.374Z,20.70
2023-05-07T14:35:00.868Z,20.30
2023-05-07T14:37:27.433Z,20.30
2023-05-07T14:39:53.897Z,20.30
2023-05-07T14:42:20.457Z,20.30
2023-05-07T14:44:46.935Z,20.30
2023-05-07T14:47:13.392Z,20.30
2023-05-07T14:49:39.892Z,20.30
2023-05-07T14:52:06.385Z,20.30
2023-05-07T14:54:32.914Z,20.20
2023-05-07T14:56:59.369Z,20.30
2023-05-07T14:59:25.921Z,20.20
2023-05-07T15:01:52.584Z,19.80
2023-05-07T15:04:19.267Z,21.00
2023-05-07T15:06:45.867Z,20.20
2023-05-07T15:09:12.335Z,20.20
2023-05-07T15:11:38.995Z,19.90
2023-05-07T15:14:05.595Z,20.20
2023-05-07T15:16:32.332Z,19.80
2023-05-07T15:18:58.900Z,20.30
2023-05-07T15:21:25.465Z,20.90
2023-05-07T15:23:52.005Z,20.30
2023-05-07T15:26:18.496Z,20.30
2023-05-07T15:28:44.945Z,19.60
2023-05-07T15:31:11.457Z,20.00
2023-05-07T15:33:37.934Z,20.30
2023-05-07T15:36:04.402Z,20.40
2023-05-07T15:38:30.897Z,20.30
2023-05-07T15:40:57.366Z,20.30
2023-05-07T15:43:23.847Z,20.30
2023-05-07T15:48:17.387Z,20.30
2023-05-07T15:50:43.977Z,20.30
2023-05-07T15:53:10.513Z,20.30
2023-05-07T15:55:37.062Z,20.30
2023-05-07T15:58:03.585Z,21.20
2023-05-07T16:00:30.088Z,20.10
2023-05-07T16:02:56.848Z,20.30
2023-05-07T16:05:23.396Z,20.30
2023-05-07T16:07:49.901Z,20.30
2023-05-07T16:10:16.366Z,20.00
2023-05-07T16:12:42.918Z,20.20
2023-05-07T16:15:09.610Z,20.30
2023-05-07T16:17:36.290Z,19.80
2023-05-07T16:20:02.789Z,20.30
2023-05-07T16:22:29.321Z,20.10
2023-05-07T16:24:55.800Z,20.30
2023-05-07T16:27:22.320Z,20.30
2023-05-07T16:29:48.784Z,20.30
2023-05-07T16:32:15.306Z,20.10
2023-05-07T16:34:41.807Z,20.30
2023-05-07T16:37:10.191Z,20.30
2023-05-07T16:39:36.682Z,20.30
2023-05-07T16:42:03.183Z,20.30
2023-05-07T16:44:29.630Z,20.30
2023-05-07T16:46:56.117Z,20.30
2023-05-07T16:49:22.658Z,20.30
2023-05-07T16:51:49.119Z,20.30
2023-05-07T16:54:15.636Z,20.30
2023-05-07T16:56:42.164Z,20.10
2023-05-07T16:59:08.687Z,20.30
2023-05-07T17:01:35.251Z,20.30
2023-05-07T17:04:01.972Z,20.40
2023-05-07T17:06:28.490Z,19.90
2023-05-07T17:08:54.998Z,20.60
2023-05-07T17:11:21.500Z,20.40
2023-05-07T17:13:47.942Z,19.90
2023-05-07T17:16:14.468Z,20.50
2023-05-07T17:18:40.979Z,20.50
2023-05-07T17:21:07.475Z,20.50
2023-05-07T17:23:33.960Z,20.50
2023-05-07T17:26:00.441Z,20.50
2023-05-07T17:28:26.939Z,20.50
2023-05-07T17:30:53.430Z,20.50
2023-05-07T17:33:22.078Z,20.40
2023-05-07T17:35:48.967Z,20.50
2023-05-07T17:38:15.449Z,21.00
2023-05-07T17:40:41.904Z,21.30
2023-05-07T17:43:08.369Z,20.80
2023-05-07T17:45:34.858Z,20.20
2023-05-07T17:48:01.422Z,19.80
2023-05-07T17:50:28.004Z,20.40
2023-05-07T17:52:54.481Z,20.50
2023-05-07T17:55:20.932Z,20.40
2023-05-07T17:57:47.407Z,20.40
2023-05-07T18:00:13.989Z,20.40
2023-05-07T18:02:40.797Z,20.00
2023-05-07T18:05:07.479Z,20.40
2023-05-07T18:07:33.975Z,20.40
2023-05-07T18:10:00.468Z,20.20
2023-05-07T18:12:27.812Z,20.40
2023-05-07T18:14:54.451Z,20.40
2023-05-07T18:19:47.960Z,21.00
2023-05-07T18:22:14.450Z,20.40
2023-05-07T18:24:40.924Z,20.70
2023-05-07T18:27:07.415Z,20.40
2023-05-07T18:29:33.922Z,20.40
2023-05-07T18:32:00.429Z,20.40
2023-05-07T18:34:26.880Z,20.10
2023-05-07T18:36:53.324Z,20.90
2023-05-07T18:39:19.773Z,20.30
2023-05-07T18:41:46.273Z,20.70
2023-05-07T18:44:12.764Z,20.30
2023-05-07T18:46:39.328Z,20.40
2023-05-07T18:49:05.884Z,20.30
2023-05-07T18:51:32.370Z,20.30
2023-05-07T18:53:58.877Z,20.40
2023-05-07T18:56:25.369Z,20.30
2023-05-07T18:58:51.865Z,20.30
2023-05-07T19:01:18.413Z,20.40
2023-05-07T19:03:44.929Z,20.10
2023-05-07T19:06:11.383Z,20.30
2023-05-07T19:08:37.861Z,20.30
2023-05-07T19:11:04.390Z,21.10
2023-05-07T19:13:30.993Z,21.10
2023-05-07T19:15:57.620Z,20.40
2023-05-07T19:18:24.140Z,20.30
2023-05-07T19:20:53.260Z,21.00
2023-05-07T19:23:21.654Z,20.30
2023-05-07T19:25:48.176Z,20.30
2023-05-07T19:28:14.627Z,20.10
2023-05-07T19:30:41.121Z,20.30
2023-05-07T19:33:07.693Z,20.30
2023-05-07T19:35:34.271Z,20.30
2023-05-07T19:38:00.754Z,20.30
2023-05-07T19:40:27.204Z,20.30
2023-05-07T19:42:53.678Z,20.30
2023-05-07T19:45:20.140Z,20.30
2023-05-07T19:47:46.664Z,20.30
2023-05-07T19:50:13.161Z,20.00
2023-05-07T19:52:39.609Z,20.30
2023-05-07T19:55:06.126Z,20.20
2023-05-07T19:57:32.650Z,20.30
2023-05-07T19:59:59.098Z,20.30
2023-05-07T20:02:25.736Z,20.30
2023-05-07T20:04:52.342Z,19.90
2023-05-07T20:07:18.818Z,20.20
2023-05-07T20:09:45.322Z,20.30
2023-05-07T20:12:11.823Z,20.30
2023-05-07T20:14:38.320Z,20.20
2023-05-07T20:19:31.825Z,20.20
2023-05-07T20:21:58.313Z,20.30
2023-05-07T20:24:24.770Z,20.20
2023-05-07T20:26:51.236Z,20.20
2023-05-07T20:29:17.680Z,20.10
2023-05-07T20:31:44.194Z,20.20
2023-05-07T20:34:10.641Z,21.20
2023-05-07T20:36:37.139Z,20.20
2023-05-07T20:39:03.583Z,20.20
2023-05-07T20:41:30.032Z,20.10
2023-05-07T20:43:56.478Z,20.10
2023-05-07T20:46:23.395Z,20.10
2023-05-07T20:48:50.126Z,20.10
2023-05-07T20:51:16.685Z,20.10
2023-05-07T20:53:44.318Z,20.20
2023-05-07T20:56:11.980Z,20.10
2023-05-07T20:58:38.444Z,20.00
2023-05-07T21:01:04.991Z,20.30
2023-05-07T21:03:31.486Z,20.20
2023-05-07T21:05:58.011Z,20.20
2023-05-07T21:08:24.518Z,20.20
2023-05-07T21:10:51.089Z,20.10
2023-05-07T21:13:17.686Z,19.90
2023-05-07T21:15:44.186Z,20.10
2023-05-07T21:18:10.648Z,20.20
2023-05-07T21:20:37.126Z,20.30
2023-05-07T21:23:03.614Z,19.60
2023-05-07T21:25:30.125Z,20.30
2023-05-07T21:27:56.582Z,20.10
2023-05-07T21:30:23.044Z,20.10
2023-05-07T21:32:49.652Z,20.10
2023-05-07T21:35:16.216Z,20.10
2023-05-07T21:37:42.678Z,20.30
2023-05-07T21:40:09.144Z,20.30
2023-05-07T21:42:35.654Z,20.30
2023-05-07T21:45:02.220Z,20.40
2023-05-07T21:47:28.727Z,19.50
2023-05-07T21:49:55.242Z,19.60
2023-05-07T21:52:21.893Z,20.10
2023-05-07T21:54:48.379Z,19.90
2023-05-07T21:57:14.957Z,20.60
2023-05-07T21:59:41.444Z,19.80
2023-05-07T22:02:07.875Z,20.10
2023-05-07T22:04:34.346Z,20.10
2023-05-07T22:07:00.818Z,20.20
2023-05-07T22:09:27.347Z,20.10
2023-05-07T22:11:53.799Z,20.10
2023-05-07T22:14:21.150Z,20.10
2023-05-07T22:16:47.946Z,20.10
2023-05-07T22:19:14.434Z,20.10
2023-05-07T22:21:40.931Z,20.00
2023-05-07T22:24:07.387Z,19.90
2023-05-07T22:26:33.837Z,19.90
2023-05-07T22:29:00.380Z,20.00
2023-05-07T22:31:26.909Z,20.40
2023-05-07T22:33:53.455Z,19.90
2023-05-07T22:36:19.944Z,20.00
2023-05-07T22:38:46.422Z,20.20
2023-05-07T22:41:12.907Z,20.30
2023-05-07T22:43:39.491Z,20.10
2023-05-07T22:46:06.065Z,20.00
2023-05-07T22:48:32.618Z,20.00
2023-05-07T22:50:59.116Z,20.00
2023-05-07T22:53:25.580Z,20.00
2023-05-07T22:55:52.039Z,19.80
2023-05-07T22:58:18.565Z,20.00
2023-05-07T23:00:45.096Z,20.00
2023-05-07T23:03:11.808Z,19.80
2023-05-07T23:05:38.447Z,20.20
2023-05-07T23:08:04.913Z,19.80
2023-05-07T23:10:31.351Z,20.00
2023-05-07T23:12:57.842Z,20.00
2023-05-07T23:15:24.522Z,19.60
2023-05-07T23:17:51.010Z,20.80
2023-05-07T23:20:17.555Z,19.70
2023-05-07T23:22:44.047Z,19.90
2023-05-07T23:25:10.552Z,20.00
2023-05-07T23:27:37.000Z,19.80
2023-05-07T23:30:03.530Z,20.00
2023-05-07T23:32:30.021Z,20.00
2023-05-07T23:34:56.541Z,20.00
2023-05-07T23:37:23.029Z,19.90
2023-05-07T23:39:49.782Z,19.90
2023-05-07T23:42:16.368Z,20.00
2023-05-07T23:44:42.853Z,20.00
2023-05-07T23:47:09.378Z,19.70
2023-05-07T23:49:35.879Z,19.40
2023-05-07T23:52:02.389Z,19.90
2023-05-07T23:54:28.842Z,19.90
2023-05-07T23:56:55.326Z,20.00
2023-05-07T23:59:21.809Z,19.80
